Time;durP1;ratioP1;P1;durP2;ratioP2;P2;SDS_P1;SDS_P2;PMS_P1;PMS_P2;Temp;Humidity;BMP_temperature;BMP_pressure;BME280_temperature;BME280_humidity;BME280_pressure;Samples;Min_cycle;Max_cycle;Signal;HPM_P1;HPM_P2
2022/01/10 00:02:22;;;;;;;23.92;6.18;;;;;;;;;;6276967;22;20008;-62
2022/01/10 00:04:48;;;;;;;18.15;5.82;;;;;;;;;;6250123;22;20028;-63
2022/01/10 00:07:14;;;;;;;23.30;6.40;;;;;;;;;;6277531;22;20014;-63
2022/01/10 00:09:40;;;;;;;31.85;7.38;;;;;;;;;;6276707;22;20360;-63
2022/01/10 00:12:06;;;;;;;21.63;6.38;;;;;;;;;;6277574;22;20090;-62
2022/01/10 00:14:32;;;;;;;28.05;7.47;;;;;;;;;;6276669;22;20432;-61
2022/01/10 00:16:58;;;;;;;32.78;7.47;;;;;;;;;;6249458;22;20022;-62
2022/01/10 00:19:24;;;;;;;25.98;7.95;;;;;;;;;;6277136;22;20020;-61
2022/01/10 00:21:50;;;;;;;33.63;9.38;;;;;;;;;;6276931;22;20008;-61
2022/01/10 00:24:16;;;;;;;24.13;7.97;;;;;;;;;;6276257;22;20421;-61
2022/01/10 00:26:42;;;;;;;27.92;7.70;;;;;;;;;;6276247;22;20026;-60
2022/01/10 00:29:08;;;;;;;25.08;8.27;;;;;;;;;;6250185;22;20423;-61
2022/01/10 00:31:34;;;;;;;34.95;9.23;;;;;;;;;;6277684;22;20134;-61
2022/01/10 00:34:00;;;;;;;26.77;8.48;;;;;;;;;;6278921;22;20028;-61
2022/01/10 00:36:26;;;;;;;23.10;8.60;;;;;;;;;;6278850;22;20012;-61
2022/01/10 00:38:52;;;;;;;32.53;10.20;;;;;;;;;;6278449;22;20478;-61
2022/01/10 00:41:18;;;;;;;25.65;8.38;;;;;;;;;;6277702;22;20488;-60
2022/01/10 00:43:49;;;;;;;26.63;8.85;;;;;;;;;;6251684;22;20055;-61
2022/01/10 00:46:15;;;;;;;21.40;8.20;;;;;;;;;;6251650;22;20012;-61
2022/01/10 00:48:42;;;;;;;28.27;9.43;;;;;;;;;;6251751;22;20502;-61
2022/01/10 00:51:08;;;;;;;25.73;9.27;;;;;;;;;;6278709;22;20015;-60
2022/01/10 00:53:34;;;;;;;30.98;10.75;;;;;;;;;;6278646;22;20016;-61
2022/01/10 00:56:00;;;;;;;29.45;10.60;;;;;;;;;;6278136;22;20024;-60
2022/01/10 00:58:26;;;;;;;35.53;10.73;;;;;;;;;;6226334;22;20020;-61
2022/01/10 01:00:52;;;;;;;35.40;11.43;;;;;;;;;;6279237;22;20069;-61
2022/01/10 01:03:19;;;;;;;32.58;10.95;;;;;;;;;;6278685;22;20448;-61
2022/01/10 01:05:45;;;;;;;22.63;9.07;;;;;;;;;;6278590;22;20503;-61
2022/01/10 01:08:12;;;;;;;30.13;12.13;;;;;;;;;;6278535;22;20011;-60
2022/01/10 01:24:02;;;;;;;31.13;9.70;;;;;;;;;;6278706;22;20320;-61
2022/01/10 01:26:29;;;;;;;38.15;11.85;;;;;;;;;;6252174;22;20020;-60
2022/01/10 01:28:55;;;;;;;33.72;11.60;;;;;;;;;;6278693;22;20088;-61
2022/01/10 01:31:21;;;;;;;29.40;10.70;;;;;;;;;;6252223;22;20020;-61
2022/01/10 01:33:47;;;;;;;26.63;10.48;;;;;;;;;;6250767;22;20022;-61
2022/01/10 01:36:16;;;;;;;29.45;10.95;;;;;;;;;;6278303;22;20015;-60
2022/01/10 01:38:42;;;;;;;34.75;11.13;;;;;;;;;;6225865;22;20020;-60
2022/01/10 01:41:51;;;;;;;28.67;10.95;;;;;;;;;;6277793;22;20012;-61
2022/01/10 01:43:59;;;;;;;42.90;12.48;;;;;;;;;;6265005;22;20090;-60
2022/01/10 01:46:25;;;;;;;38.40;12.43;;;;;;;;;;6277911;22;20023;-60
2022/01/10 01:48:53;;;;;;;40.85;13.45;;;;;;;;;;6278176;22;20019;-60
2022/01/10 01:51:19;;;;;;;38.65;12.88;;;;;;;;;;6277821;22;20011;-60
2022/01/10 01:53:45;;;;;;;27.85;10.85;;;;;;;;;;6277586;22;20015;-61
2022/01/10 01:56:11;;;;;;;26.13;11.27;;;;;;;;;;6277721;22;20073;-60
2022/01/10 01:58:38;;;;;;;52.65;12.90;;;;;;;;;;6251002;22;20441;-60
2022/01/10 02:01:05;;;;;;;40.78;13.80;;;;;;;;;;6277622;22;20015;-60
2022/01/10 02:03:33;;;;;;;34.70;12.38;;;;;;;;;;6277973;22;20111;-60
2022/01/10 02:06:00;;;;;;;31.50;11.40;;;;;;;;;;6274571;22;20042;-61
2022/01/10 02:08:26;;;;;;;30.00;10.02;;;;;;;;;;6258754;22;20020;-61
2022/01/10 02:10:52;;;;;;;42.20;12.40;;;;;;;;;;6240983;23;20027;-60
2022/01/10 02:13:18;;;;;;;34.00;11.13;;;;;;;;;;6245012;23;20031;-61
2022/01/10 02:18:17;;;;;;;25.05;11.80;;;;;;;;;;6246917;23;20027;-60
2022/01/10 02:20:43;;;;;;;29.98;10.45;;;;;;;;;;6247181;23;20016;-60
2022/01/10 02:23:09;;;;;;;25.52;10.13;;;;;;;;;;6246469;23;20099;-60
2022/01/10 02:25:35;;;;;;;26.77;9.48;;;;;;;;;;6247258;23;20016;-60
2022/01/10 02:28:01;;;;;;;30.65;11.43;;;;;;;;;;6247137;23;20475;-61
2022/01/10 02:30:27;;;;;;;40.45;12.32;;;;;;;;;;6247081;23;20059;-60
2022/01/10 02:32:57;;;;;;;28.40;10.02;;;;;;;;;;6245085;23;20055;-60
2022/01/10 02:35:25;;;;;;;22.10;9.38;;;;;;;;;;6246701;22;20016;-61
2022/01/10 02:37:52;;;;;;;31.27;12.43;;;;;;;;;;6246614;23;20449;-61
2022/01/10 02:40:20;;;;;;;43.85;12.93;;;;;;;;;;6247080;22;20138;-60
2022/01/10 02:42:47;;;;;;;41.63;15.30;;;;;;;;;;6246707;22;20018;-60
2022/01/10 02:45:13;;;;;;;31.40;12.60;;;;;;;;;;6246965;23;20022;-60
2022/01/10 02:47:40;;;;;;;29.60;12.95;;;;;;;;;;6244706;23;20027;-61
2022/01/10 02:50:06;;;;;;;32.88;12.02;;;;;;;;;;6245397;23;20057;-60
2022/01/10 02:52:32;;;;;;;25.35;11.60;;;;;;;;;;6246683;23;20114;-61
2022/01/10 02:55:00;;;;;;;26.95;10.70;;;;;;;;;;6247401;23;20044;-61
2022/01/10 02:57:27;;;;;;;40.50;13.77;;;;;;;;;;6245611;22;20016;-60
2022/01/10 02:59:53;;;;;;;36.83;12.40;;;;;;;;;;6244893;23;20368;-61
2022/01/10 03:02:20;;;;;;;34.42;12.60;;;;;;;;;;6247376;23;20012;-60
2022/01/10 03:04:47;;;;;;;47.42;15.55;;;;;;;;;;6246822;23;20020;-60
2022/01/10 03:07:16;;;;;;;49.10;16.35;;;;;;;;;;6246777;23;20016;-61
2022/01/10 03:09:43;;;;;;;41.45;15.00;;;;;;;;;;6253426;22;20016;-61
2022/01/10 03:12:09;;;;;;;43.38;16.33;;;;;;;;;;6249718;22;20102;-61
2022/01/10 03:14:36;;;;;;;42.90;15.27;;;;;;;;;;6277407;22;20023;-61
2022/01/10 03:17:02;;;;;;;33.22;14.68;;;;;;;;;;6277424;22;20061;-61
2022/01/10 03:19:28;;;;;;;42.70;15.50;;;;;;;;;;6251310;22;20012;-61
2022/01/10 03:21:54;;;;;;;41.47;16.35;;;;;;;;;;6276990;22;20008;-61
2022/01/10 03:24:20;;;;;;;41.38;17.42;;;;;;;;;;6277949;22;20012;-61
2022/01/10 03:26:46;;;;;;;47.22;17.52;;;;;;;;;;6277325;22;20043;-61
2022/01/10 03:29:12;;;;;;;46.40;17.33;;;;;;;;;;6250271;22;20069;-61
2022/01/10 03:31:38;;;;;;;48.90;16.70;;;;;;;;;;6276747;22;20068;-61
2022/01/10 03:34:10;;;;;;;38.58;18.10;;;;;;;;;;6277349;22;20015;-61
2022/01/10 03:36:36;;;;;;;46.13;18.48;;;;;;;;;;6278018;22;20073;-61
2022/01/10 03:39:03;;;;;;;53.22;18.42;;;;;;;;;;6249846;22;20023;-61
2022/01/10 03:41:29;;;;;;;49.22;19.25;;;;;;;;;;6276774;22;20094;-61
2022/01/10 03:43:55;;;;;;;46.83;18.35;;;;;;;;;;6249847;22;20035;-62
2022/01/10 03:46:21;;;;;;;53.33;20.70;;;;;;;;;;6276882;22;20427;-61
2022/01/10 03:48:47;;;;;;;49.40;21.08;;;;;;;;;;6277163;22;20022;-62
2022/01/10 03:51:13;;;;;;;33.58;15.27;;;;;;;;;;6277166;22;20012;-61
2022/01/10 03:53:39;;;;;;;35.78;16.35;;;;;;;;;;6277138;22;20018;-61
2022/01/10 03:56:05;;;;;;;49.78;19.27;;;;;;;;;;6249809;22;20038;-61
2022/01/10 03:58:31;;;;;;;44.05;18.88;;;;;;;;;;6250019;22;20011;-61
2022/01/10 04:00:59;;;;;;;40.53;18.45;;;;;;;;;;6276922;22;20061;-61
2022/01/10 04:03:25;;;;;;;43.92;17.48;;;;;;;;;;6277848;22;20102;-61
2022/01/10 04:05:51;;;;;;;52.03;20.73;;;;;;;;;;6276432;22;20012;-61
2022/01/10 04:08:17;;;;;;;54.63;21.83;;;;;;;;;;6251637;22;20023;-61
2022/01/10 04:10:43;;;;;;;42.55;19.98;;;;;;;;;;6279251;22;20019;-61
2022/01/10 04:13:09;;;;;;;33.55;18.20;;;;;;;;;;6278996;22;20290;-62
2022/01/10 04:15:35;;;;;;;43.75;19.90;;;;;;;;;;6279645;22;20011;-61
2022/01/10 04:18:02;;;;;;;39.17;17.55;;;;;;;;;;6279071;22;20011;-61
2022/01/10 04:20:28;;;;;;;42.47;17.23;;;;;;;;;;6278548;22;20043;-61
2022/01/10 04:22:54;;;;;;;33.03;16.95;;;;;;;;;;6278776;22;20026;-61
2022/01/10 04:25:20;;;;;;;37.28;17.00;;;;;;;;;;6278371;22;20420;-61
2022/01/10 04:27:46;;;;;;;53.85;22.08;;;;;;;;;;6278753;22;20011;-61
2022/01/10 04:30:12;;;;;;;46.55;19.48;;;;;;;;;;6277911;22;20328;-61
2022/01/10 04:32:39;;;;;;;44.60;20.33;;;;;;;;;;6278763;22;20007;-61
2022/01/10 04:35:06;;;;;;;40.42;17.55;;;;;;;;;;6278233;22;20018;-62
2022/01/10 04:37:32;;;;;;;35.60;17.95;;;;;;;;;;6251375;22;20016;-61
2022/01/10 04:39:58;;;;;;;44.88;19.52;;;;;;;;;;6278321;22;20325;-61
2022/01/10 04:42:24;;;;;;;34.60;16.20;;;;;;;;;;6251360;22;20008;-61
2022/01/10 04:44:50;;;;;;;36.08;17.48;;;;;;;;;;6278671;22;20012;-61
2022/01/10 04:47:16;;;;;;;36.40;16.00;;;;;;;;;;6278242;22;20069;-61
2022/01/10 04:52:30;;;;;;;42.28;18.55;;;;;;;;;;6278545;22;20016;-61
2022/01/10 04:54:56;;;;;;;42.05;20.38;;;;;;;;;;6277935;22;20016;-61
2022/01/10 04:57:22;;;;;;;53.72;22.23;;;;;;;;;;6277963;22;20011;-61
2022/01/10 04:59:48;;;;;;;53.35;23.20;;;;;;;;;;6251561;22;20007;-61
2022/01/10 05:02:15;;;;;;;54.88;23.08;;;;;;;;;;6278568;22;20018;-61
2022/01/10 05:04:41;;;;;;;40.83;19.40;;;;;;;;;;6277164;22;20397;-61
2022/01/10 05:07:07;;;;;;;52.17;22.73;;;;;;;;;;6251581;22;20065;-61
2022/01/10 05:09:34;;;;;;;62.08;23.90;;;;;;;;;;6278435;22;20090;-61
2022/01/10 05:12:00;;;;;;;50.67;21.00;;;;;;;;;;6278667;22;20011;-61
2022/01/10 05:14:26;;;;;;;59.95;25.10;;;;;;;;;;6278502;22;20094;-61
2022/01/10 05:16:52;;;;;;;59.78;20.83;;;;;;;;;;6277631;22;20318;-61
2022/01/10 05:19:19;;;;;;;59.75;23.88;;;;;;;;;;6225960;22;20022;-61
2022/01/10 05:21:45;;;;;;;43.92;20.23;;;;;;;;;;6277969;22;20058;-61
2022/01/10 05:24:11;;;;;;;56.55;23.55;;;;;;;;;;6275684;22;20074;-61
2022/01/10 05:32:45;;;;;;;51.78;22.10;;;;;;;;;;6240504;22;20016;-61
2022/01/10 05:35:11;;;;;;;54.33;21.30;;;;;;;;;;6246277;23;20027;-61
2022/01/10 05:37:37;;;;;;;53.78;23.20;;;;;;;;;;6219542;23;20325;-61
2022/01/10 05:40:03;;;;;;;59.55;24.25;;;;;;;;;;6246595;23;20012;-61
2022/01/10 05:42:29;;;;;;;45.38;22.35;;;;;;;;;;6246440;23;20016;-61
2022/01/10 05:44:55;;;;;;;59.65;24.58;;;;;;;;;;6246471;23;20039;-61
2022/01/10 05:47:21;;;;;;;56.85;23.63;;;;;;;;;;6246532;23;20074;-61
2022/01/10 05:49:49;;;;;;;57.60;23.35;;;;;;;;;;6246564;22;20020;-62
2022/01/10 05:52:15;;;;;;;57.22;23.02;;;;;;;;;;6244981;23;20438;-62
2022/01/10 05:54:41;;;;;;;61.45;24.17;;;;;;;;;;6246451;23;20069;-61
2022/01/10 05:57:08;;;;;;;63.92;24.80;;;;;;;;;;6244841;23;20009;-62
2022/01/10 05:59:34;;;;;;;41.45;19.98;;;;;;;;;;6244671;23;20023;-61
2022/01/10 06:02:00;;;;;;;70.72;28.33;;;;;;;;;;6245841;23;20012;-61
2022/01/10 06:04:26;;;;;;;57.50;27.52;;;;;;;;;;6246571;23;20019;-61
2022/01/10 06:06:52;;;;;;;67.35;28.80;;;;;;;;;;6246274;22;20326;-62
2022/01/10 06:09:18;;;;;;;67.15;28.05;;;;;;;;;;6246218;23;20016;-61
2022/01/10 06:11:45;;;;;;;54.55;25.92;;;;;;;;;;6246265;23;20023;-62
2022/01/10 06:14:11;;;;;;;46.00;22.35;;;;;;;;;;6246476;22;20012;-61
2022/01/10 06:16:37;;;;;;;51.80;22.42;;;;;;;;;;6244886;23;20109;-62
2022/01/10 06:19:03;;;;;;;49.90;24.65;;;;;;;;;;6244675;23;20422;-61
2022/01/10 06:21:29;;;;;;;52.55;24.23;;;;;;;;;;6246014;23;20087;-62
2022/01/10 06:23:56;;;;;;;57.47;26.55;;;;;;;;;;6246080;23;20012;-62
2022/01/10 06:26:22;;;;;;;65.30;29.23;;;;;;;;;;6246167;23;20015;-61
2022/01/10 06:28:48;;;;;;;45.88;23.58;;;;;;;;;;6244443;23;20499;-61
2022/01/10 06:31:14;;;;;;;45.22;22.95;;;;;;;;;;6243867;23;20083;-62
2022/01/10 06:33:40;;;;;;;69.45;27.02;;;;;;;;;;6245904;23;20081;-61
2022/01/10 06:36:08;;;;;;;64.75;29.40;;;;;;;;;;6245520;23;20404;-62
2022/01/10 06:38:35;;;;;;;45.85;23.17;;;;;;;;;;6245844;23;20074;-62
2022/01/10 06:41:01;;;;;;;53.00;26.42;;;;;;;;;;6245983;23;20081;-62
2022/01/10 06:43:27;;;;;;;47.97;24.25;;;;;;;;;;6219097;23;20091;-62
2022/01/10 06:45:53;;;;;;;52.22;24.88;;;;;;;;;;6245993;23;20047;-62
2022/01/10 06:48:19;;;;;;;53.40;25.33;;;;;;;;;;6245850;23;20099;-62
2022/01/10 06:50:47;;;;;;;64.25;27.88;;;;;;;;;;6245799;23;20012;-62
2022/01/10 06:53:16;;;;;;;67.35;29.05;;;;;;;;;;6245795;23;20012;-62
2022/01/10 06:55:42;;;;;;;58.60;26.42;;;;;;;;;;6245750;23;20082;-62
2022/01/10 06:58:08;;;;;;;56.85;26.15;;;;;;;;;;6245599;23;20016;-62
2022/01/10 07:00:34;;;;;;;71.45;29.92;;;;;;;;;;6245543;23;20087;-62
2022/01/10 07:03:01;;;;;;;56.45;26.88;;;;;;;;;;6245556;23;20008;-62
2022/01/10 07:05:28;;;;;;;66.05;27.38;;;;;;;;;;6244467;22;20012;-62
2022/01/10 07:07:54;;;;;;;44.75;21.60;;;;;;;;;;6245781;22;20020;-62
2022/01/10 07:10:20;;;;;;;50.50;23.17;;;;;;;;;;6218851;23;20065;-62
2022/01/10 07:12:46;;;;;;;52.80;25.33;;;;;;;;;;6245658;23;20016;-62
2022/01/10 07:15:13;;;;;;;60.10;27.90;;;;;;;;;;6244147;23;20012;-62
2022/01/10 07:17:39;;;;;;;59.17;27.33;;;;;;;;;;6245592;23;20011;-62
2022/01/10 07:20:05;;;;;;;67.70;27.10;;;;;;;;;;6245681;23;20016;-62
2022/01/10 07:22:31;;;;;;;61.10;28.45;;;;;;;;;;6244110;23;20444;-62
2022/01/10 07:24:57;;;;;;;59.92;26.77;;;;;;;;;;6245655;23;20016;-62
2022/01/10 07:27:23;;;;;;;50.17;26.23;;;;;;;;;;6275988;22;20015;-62
2022/01/10 07:29:50;;;;;;;64.63;28.27;;;;;;;;;;6248791;22;20023;-62
2022/01/10 07:32:16;;;;;;;62.95;29.42;;;;;;;;;;6248946;22;20019;-62
2022/01/10 07:34:43;;;;;;;60.38;29.70;;;;;;;;;;6275423;22;20248;-62
2022/01/10 07:37:09;;;;;;;57.13;27.90;;;;;;;;;;6276288;22;20020;-62
2022/01/10 07:39:35;;;;;;;51.20;24.40;;;;;;;;;;6249000;22;20190;-62
2022/01/10 07:42:01;;;;;;;56.40;26.50;;;;;;;;;;6276501;22;20051;-62
2022/01/10 07:44:27;;;;;;;70.72;29.45;;;;;;;;;;6251250;22;20014;-62
2022/01/10 07:46:55;;;;;;;51.88;27.08;;;;;;;;;;6278220;22;20086;-62
2022/01/10 07:49:21;;;;;;;66.15;29.33;;;;;;;;;;6278002;22;20018;-62
2022/01/10 07:51:47;;;;;;;46.70;24.50;;;;;;;;;;6278274;22;20004;-62
2022/01/10 07:54:13;;;;;;;50.72;23.52;;;;;;;;;;6278102;22;20047;-62
2022/01/10 07:56:39;;;;;;;45.58;23.60;;;;;;;;;;6278269;22;20016;-62
2022/01/10 07:59:05;;;;;;;49.05;23.75;;;;;;;;;;6251053;22;20020;-62
2022/01/10 08:01:31;;;;;;;61.92;24.98;;;;;;;;;;6277403;22;20493;-61
2022/01/10 08:03:57;;;;;;;49.85;22.63;;;;;;;;;;6277991;22;20047;-61
2022/01/10 08:06:23;;;;;;;38.78;21.45;;;;;;;;;;6278108;22;20042;-61
2022/01/10 08:08:50;;;;;;;40.63;21.13;;;;;;;;;;6277990;22;20016;-61
2022/01/10 08:11:16;;;;;;;47.58;22.50;;;;;;;;;;6277391;22;20023;-61
2022/01/10 08:13:42;;;;;;;43.03;21.27;;;;;;;;;;6277617;22;20333;-61
2022/01/10 08:16:08;;;;;;;38.58;21.40;;;;;;;;;;6250495;22;20019;-61
2022/01/10 08:18:35;;;;;;;37.45;20.75;;;;;;;;;;6250746;22;20023;-61
2022/01/10 08:21:01;;;;;;;45.80;22.38;;;;;;;;;;6277274;22;20019;-61
2022/01/10 08:23:27;;;;;;;45.88;22.25;;;;;;;;;;6277816;22;20035;-61
2022/01/10 08:25:53;;;;;;;49.15;23.38;;;;;;;;;;6277349;22;20016;-62
2022/01/10 08:28:19;;;;;;;60.40;26.63;;;;;;;;;;6276980;22;20016;-61
2022/01/10 08:30:45;;;;;;;56.80;23.98;;;;;;;;;;6277771;22;20019;-61
2022/01/10 08:33:11;;;;;;;55.03;25.15;;;;;;;;;;6250934;22;20008;-61
2022/01/10 08:35:37;;;;;;;65.15;28.17;;;;;;;;;;6277229;22;20020;-61
2022/01/10 08:38:03;;;;;;;57.45;27.33;;;;;;;;;;6250396;22;20019;-61
2022/01/10 08:40:29;;;;;;;52.33;25.73;;;;;;;;;;6277647;22;20361;-62
2022/01/10 08:42:56;;;;;;;61.90;28.17;;;;;;;;;;6277510;22;20107;-61
2022/01/10 08:45:22;;;;;;;60.30;27.63;;;;;;;;;;6277678;22;20023;-61
2022/01/10 08:47:48;;;;;;;62.53;26.65;;;;;;;;;;6277542;22;20043;-61
2022/01/10 08:50:14;;;;;;;62.38;31.20;;;;;;;;;;6277811;22;20016;-61
2022/01/10 08:52:41;;;;;;;71.10;29.95;;;;;;;;;;6276900;22;20016;-61
2022/01/10 08:55:08;;;;;;;72.43;31.67;;;;;;;;;;6276841;22;20306;-61
2022/01/10 08:57:34;;;;;;;62.17;29.77;;;;;;;;;;6250253;22;20439;-61
2022/01/10 09:00:00;;;;;;;62.00;31.75;;;;;;;;;;6250175;22;20677;-61
2022/01/10 09:02:26;;;;;;;57.28;30.42;;;;;;;;;;6277363;22;20012;-61
2022/01/10 09:04:53;;;;;;;82.00;33.33;;;;;;;;;;6193567;23;20322;-61
2022/01/10 09:07:19;;;;;;;72.60;34.20;;;;;;;;;;6186479;23;20017;-61
2022/01/10 09:09:45;;;;;;;70.93;34.45;;;;;;;;;;6186620;23;20148;-61
2022/01/10 09:12:11;;;;;;;76.85;34.80;;;;;;;;;;6186048;23;20009;-61
2022/01/10 09:14:37;;;;;;;71.82;34.85;;;;;;;;;;6186117;23;20023;-61
2022/01/10 09:17:03;;;;;;;80.53;36.97;;;;;;;;;;6186515;23;20009;-61
2022/01/10 09:19:29;;;;;;;76.55;36.72;;;;;;;;;;6135221;23;20088;-60
2022/01/10 09:21:56;;;;;;;84.80;36.97;;;;;;;;;;6186078;23;20013;-60
2022/01/10 09:24:22;;;;;;;75.90;35.28;;;;;;;;;;6186351;23;20056;-60
2022/01/10 09:26:48;;;;;;;75.97;35.42;;;;;;;;;;6186042;23;20021;-61
2022/01/10 09:29:14;;;;;;;66.25;35.45;;;;;;;;;;6185680;23;20017;-60
2022/01/10 09:31:40;;;;;;;75.20;35.97;;;;;;;;;;6186091;23;20017;-60
2022/01/10 09:34:06;;;;;;;87.25;37.63;;;;;;;;;;6159871;23;20013;-60
2022/01/10 09:36:32;;;;;;;63.97;33.70;;;;;;;;;;6135205;23;20032;-60
2022/01/10 09:38:59;;;;;;;77.45;37.72;;;;;;;;;;6185745;23;20434;-61
2022/01/10 09:41:26;;;;;;;76.25;37.53;;;;;;;;;;6159768;23;20020;-60
2022/01/10 09:43:56;;;;;;;70.18;37.97;;;;;;;;;;6159563;23;20390;-60
2022/01/10 09:46:22;;;;;;;78.27;39.73;;;;;;;;;;6159584;23;20088;-60
2022/01/10 09:48:48;;;;;;;76.45;38.55;;;;;;;;;;6185935;23;20035;-60
2022/01/10 09:51:14;;;;;;;77.60;38.60;;;;;;;;;;6185944;23;20476;-60
2022/01/10 09:53:41;;;;;;;72.57;36.17;;;;;;;;;;6159655;23;20013;-60
2022/01/10 09:56:07;;;;;;;80.25;38.33;;;;;;;;;;6185814;23;20088;-60
2022/01/10 09:58:33;;;;;;;77.63;38.03;;;;;;;;;;6185861;23;20017;-60
2022/01/10 10:01:00;;;;;;;77.32;37.75;;;;;;;;;;6185674;23;20059;-60
2022/01/10 10:03:26;;;;;;;75.10;38.97;;;;;;;;;;6185759;23;20013;-61
2022/01/10 10:05:57;;;;;;;63.50;33.92;;;;;;;;;;6184462;23;20088;-60
2022/01/10 10:08:24;;;;;;;68.18;37.70;;;;;;;;;;6185327;23;20430;-60
2022/01/10 10:10:51;;;;;;;79.28;39.72;;;;;;;;;;6184892;23;20102;-60
2022/01/10 10:13:17;;;;;;;63.45;33.60;;;;;;;;;;6159232;23;20016;-60
2022/01/10 10:15:45;;;;;;;88.80;37.95;;;;;;;;;;6185788;23;20005;-60
2022/01/10 10:18:15;;;;;;;61.90;32.45;;;;;;;;;;6185710;23;20024;-60
2022/01/10 10:20:42;;;;;;;56.27;31.70;;;;;;;;;;6185709;23;20052;-62
2022/01/10 10:23:13;;;;;;;67.55;34.20;;;;;;;;;;6159822;23;20307;-60
2022/01/10 10:25:45;;;;;;;56.10;32.30;;;;;;;;;;6185755;23;20307;-59
2022/01/10 10:28:12;;;;;;;60.33;33.58;;;;;;;;;;6185477;23;20040;-60
2022/01/10 10:30:39;;;;;;;60.13;31.45;;;;;;;;;;6160044;23;20480;-60
2022/01/10 10:33:14;;;;;;;58.45;33.22;;;;;;;;;;6186664;23;20071;-60
2022/01/10 10:35:41;;;;;;;64.70;34.47;;;;;;;;;;6186225;23;20013;-60
2022/01/10 10:38:07;;;;;;;53.13;30.48;;;;;;;;;;6186184;23;20017;-60
2022/01/10 10:40:38;;;;;;;53.55;32.80;;;;;;;;;;6185412;23;20013;-60
2022/01/10 10:43:06;;;;;;;54.55;30.88;;;;;;;;;;6159327;23;20300;-60
2022/01/10 10:45:32;;;;;;;62.08;30.13;;;;;;;;;;6185538;23;20013;-60
2022/01/10 10:48:04;;;;;;;49.25;29.23;;;;;;;;;;6185980;23;20325;-60
2022/01/10 10:50:34;;;;;;;52.90;29.13;;;;;;;;;;6186813;23;20024;-60
2022/01/10 10:53:03;;;;;;;51.13;28.92;;;;;;;;;;6185675;23;20009;-60
2022/01/10 10:55:29;;;;;;;48.25;27.10;;;;;;;;;;6185619;23;20023;-60
2022/01/10 10:57:55;;;;;;;54.58;29.40;;;;;;;;;;6185389;23;20334;-60
2022/01/10 11:00:24;;;;;;;51.63;28.95;;;;;;;;;;6159555;23;20016;-60
2022/01/10 11:02:51;;;;;;;48.58;28.00;;;;;;;;;;6159543;23;20017;-60
2022/01/10 11:05:17;;;;;;;44.85;27.38;;;;;;;;;;6186299;23;20013;-60
2022/01/10 11:07:43;;;;;;;50.60;29.00;;;;;;;;;;6185724;23;20017;-60
2022/01/10 11:10:10;;;;;;;53.83;29.00;;;;;;;;;;6185574;23;20016;-60
2022/01/10 11:12:37;;;;;;;47.17;26.73;;;;;;;;;;6185973;23;20013;-60
2022/01/10 11:15:03;;;;;;;52.15;26.83;;;;;;;;;;6159039;23;20017;-60
2022/01/10 11:17:29;;;;;;;42.13;26.52;;;;;;;;;;6185524;23;20486;-60
2022/01/10 11:20:16;;;;;;;42.95;25.65;;;;;;;;;;6186201;23;20019;-62
2022/01/10 11:22:42;;;;;;;42.42;24.95;;;;;;;;;;6186262;23;20017;-60
2022/01/10 11:25:20;;;;;;;40.72;24.10;;;;;;;;;;6186142;23;20017;-60
2022/01/10 11:27:46;;;;;;;43.13;23.30;;;;;;;;;;6185317;23;20013;-61
2022/01/10 11:30:32;;;;;;;41.42;23.85;;;4.50;99.90;;;;;;6185599;23;20334;-61
2022/01/10 11:33:07;;;;;;;40.17;22.77;;;;;;;;;;6185279;23;20009;-62
2022/01/10 11:35:34;;;;;;;45.65;23.92;;;;;;;;;;6186616;23;20021;-61
2022/01/10 11:38:00;;;;;;;42.60;23.20;;;;;;;;;;6185575;23;20147;-61
2022/01/10 11:40:27;;;;;;;39.95;22.90;;;;;;;;;;6134601;23;20143;-60
2022/01/10 11:42:58;;;;;;;38.67;22.13;;;;;;;;;;6159478;23;20024;-61
2022/01/10 11:45:24;;;;;;;43.65;22.38;;;;;;;;;;6185995;23;20013;-61
2022/01/10 11:48:02;;;;;;;38.92;21.90;;;;;;;;;;6184892;23;20084;-62
2022/01/10 11:50:29;;;;;;;36.13;21.92;;;;;;;;;;6186885;23;20061;-60
2022/01/10 11:52:56;;;;;;;38.78;22.38;;;;;;;;;;6159238;23;20444;-61
2022/01/10 11:55:32;;;;;;;38.28;21.65;;;;;;;;;;6185404;23;20012;-61
2022/01/10 11:58:17;;;;;;;39.30;22.85;;;;;;;;;;6185317;23;20072;-61
2022/01/10 12:00:43;;;;;;;44.15;23.52;;;;;;;;;;6186195;23;20013;-60
2022/01/10 12:03:09;;;;;;;33.00;22.58;;;;;;;;;;6187090;23;20036;-60
2022/01/10 12:05:35;;;;;;;37.67;21.25;;;;;;;;;;6184651;23;20017;-61
2022/01/10 12:08:04;;;;;;;38.58;22.45;;;;;;;;;;6184959;23;20020;-60
2022/01/10 12:10:31;;;;;;;36.75;21.20;;;;;;;;;;6184850;23;20013;-61
2022/01/10 12:13:02;;;;;;;38.70;21.95;;;;;;;;;;6184819;23;20009;-61
2022/01/10 12:15:38;;;;;;;39.60;21.15;;;;;;;;;;6185117;23;20017;-60
2022/01/10 12:18:05;;;;;;;34.13;21.52;;;;;;;;;;6185023;23;20017;-61
2022/01/10 12:20:32;;;;;;;38.17;21.75;;;;;;;;;;6185095;23;20016;-61
2022/01/10 12:23:00;;;;;;;36.53;21.67;;;;;;;;;;6184617;23;20418;-61
2022/01/10 12:25:26;;;;;;;39.35;22.92;;;;;;;;;;6184568;23;20307;-61
2022/01/10 12:27:58;;;;;;;34.97;19.80;;;;;;;;;;6183881;23;20465;-61
2022/01/10 12:30:26;;;;;;;32.72;21.05;;;;;;;;;;6186373;23;20064;-61
2022/01/10 12:32:52;;;;;;;35.88;21.70;;;;;;;;;;6160121;23;20020;-61
2022/01/10 12:35:19;;;;;;;38.85;22.17;;;;;;;;;;6186648;23;20020;-61
2022/01/10 12:37:45;;;;;;;33.38;20.65;;;;;;;;;;6186627;23;20021;-61
2022/01/10 12:40:14;;;;;;;36.88;21.70;;;;;;;;;;6186627;23;20020;-61
2022/01/10 12:42:40;;;;;;;40.60;22.85;;;;;;;;;;6160016;23;20546;-61
2022/01/10 12:45:06;;;;;;;43.90;21.88;;;;;;;;;;6186239;23;20039;-61
2022/01/10 12:47:32;;;;;;;37.60;20.98;;;;;;;;;;6186641;23;20088;-61
2022/01/10 12:49:58;;;;;;;36.60;21.60;;;;;;;;;;6186580;23;20075;-61
2022/01/10 12:52:24;;;;;;;35.30;19.50;;;;;;;;;;6186274;23;20019;-61
2022/01/10 12:54:51;;;;;;;37.50;21.27;;;;;;;;;;6186666;23;20041;-61
2022/01/10 12:57:17;;;;;;;37.10;20.88;;;;;;;;;;6186227;23;20013;-61
2022/01/10 12:59:43;;;;;;;42.08;21.52;;;;;;;;;;6186650;23;20023;-61
2022/01/10 13:02:09;;;;;;;45.38;21.55;;;;;;;;;;6159780;23;20373;-61
2022/01/10 13:04:37;;;;;;;36.75;20.75;;;;;;;;;;6185936;23;20016;-61
2022/01/10 13:07:09;;;;;;;38.15;21.15;;;;;;;;;;6159730;23;20391;-61
2022/01/10 13:09:37;;;;;;;40.50;21.63;;;;;;;;;;6186198;23;20021;-61
2022/01/10 13:14:49;;;;;;;38.97;22.15;;;;;;;;;;6187262;23;20016;-61
2022/01/10 13:17:15;;;;;;;40.63;22.55;;;;;;;;;;6188070;23;20457;-61
2022/01/10 13:19:44;;;;;;;38.03;21.00;;;;;;;;;;6187431;23;20063;-61
2022/01/10 13:22:12;;;;;;;51.30;22.00;;;;;;;;;;6187233;23;20019;-62
2022/01/10 13:24:50;;;;;;;39.75;22.08;;;;;;;;;;6187630;23;20055;-61
2022/01/10 13:27:21;;;;;;;40.38;21.13;;;;;;;;;;6187439;23;20291;-61
2022/01/10 13:29:50;;;;;;;42.22;21.83;;;;;;;;;;6162195;23;20020;-61
2022/01/10 13:32:18;;;;;;;39.00;20.13;;;;;;;;;;6187316;23;20326;-61
2022/01/10 13:34:50;;;;;;;38.63;21.73;;;;;;;;;;6160974;23;20504;-61
2022/01/10 13:37:27;;;;;;;45.47;21.35;;;;;;;;;;6136434;23;20437;-62
2022/01/10 13:40:06;;;;;;;44.20;20.67;;;;;;;;;;6187266;23;20016;-61
2022/01/10 13:42:51;;;;;;;43.28;22.05;;;;;;;;;;6186806;23;20442;-61
2022/01/10 13:45:18;;;;;;;39.08;19.77;;;;;;;;;;6161252;23;20009;-61
2022/01/10 13:47:51;;;;;;;39.95;20.02;;;;;;;;;;6187147;23;20024;-61
2022/01/10 13:50:18;;;;;;;53.13;26.08;;;;;;;;;;6187139;23;20073;-61
2022/01/10 13:53:01;;;;;;;41.63;22.63;;;;;;;;;;6161168;23;20182;-61
2022/01/10 13:55:27;;;;;;;65.53;31.20;;;;;;;;;;6186668;23;20024;-61
2022/01/10 13:57:53;;;;;;;48.45;25.42;;;;;;;;;;6160840;23;20013;-61
2022/01/10 14:00:21;;;;;;;42.15;21.50;;;;;;;;;;6160911;23;20362;-61
2022/01/10 14:02:47;;;;;;;60.53;24.80;;;;;;;;;;6186885;23;20009;-62
2022/01/10 14:05:26;;;;;;;37.35;21.10;;;;;;;;;;6188870;23;20023;-61
2022/01/10 14:07:53;;;;;;;40.83;21.05;;;;;;;;;;6217091;23;20020;-61
2022/01/10 14:10:19;;;;;;;38.20;18.92;;;;;;;;;;6217736;23;20067;-62
2022/01/10 14:12:45;;;;;;;38.05;20.83;;;;;;;;;;6217298;23;20299;-61
2022/01/10 14:15:11;;;;;;;37.35;21.92;;;;;;;;;;6217642;23;20087;-61
2022/01/10 14:17:38;;;;;;;33.45;20.05;;;;;;;;;;6216536;23;20095;-61
2022/01/10 14:20:05;;;;;;;43.03;22.75;;;;;;;;;;6217318;23;20020;-62
2022/01/10 14:22:32;;;;;;;38.88;21.10;;;;;;;;;;6216431;23;20429;-62
2022/01/10 14:25:01;;;;;;;37.17;19.90;;;;;;;;;;6216453;23;20503;-61
2022/01/10 14:27:29;;;;;;;53.40;25.00;;;;;;;;;;6217289;23;20103;-61
2022/01/10 14:29:55;;;;;;;46.78;22.13;;;;;;;;;;6216848;23;20016;-61
2022/01/10 14:32:21;;;;;;;45.45;22.52;;;;;;;;;;6215555;23;20012;-62
2022/01/10 14:34:48;;;;;;;49.28;24.63;;;;;;;;;;6216719;23;20048;-61
2022/01/10 14:37:14;;;;;;;41.40;23.30;;;;;;;;;;6214826;23;20009;-61
2022/01/10 14:39:40;;;;;;;45.15;23.80;;;;;;;;;;6216701;23;20096;-63
2022/01/10 14:42:06;;;;;;;39.33;22.58;;;;;;;;;;6215139;23;20013;-61
2022/01/10 14:44:32;;;;;;;46.08;25.10;;;;;;;;;;6216699;23;20020;-61
2022/01/10 14:46:58;;;;;;;38.92;22.65;;;;;;;;;;6214299;23;20043;-61